Time;durP1;ratioP1;P1;durP2;ratioP2;P2;SDS_P1;SDS_P2;PMS_P1;PMS_P2;Temp;Humidity;BMP_temperature;BMP_pressure;BME280_temperature;BME280_humidity;BME280_pressure;Samples;Min_cycle;Max_cycle;Signal;HPM_P1;HPM_P2
2022/11/03 04:22:33;;;;;;;9.98;8.75;;;6.90;99.90;;;;;;5075309;28;20216;-81
2022/11/03 04:25:00;;;;;;;9.57;8.60;;;6.90;99.90;;;;;;5075749;28;20211;-81
2022/11/03 04:27:30;;;;;;;11.27;9.10;;;6.90;99.90;;;;;;5055835;28;20210;-80
2022/11/03 04:30:02;;;;;;;8.90;8.07;;;6.90;99.90;;;;;;5055688;28;20206;-80
2022/11/03 04:32:29;;;;;;;10.23;9.23;;;6.80;99.90;;;;;;5074702;28;20264;-81
2022/11/03 04:34:56;;;;;;;10.30;9.30;;;6.80;99.90;;;;;;5064845;28;20209;-82
2022/11/03 04:37:22;;;;;;;11.38;9.68;;;6.80;99.90;;;;;;5056503;28;20205;-81
2022/11/03 04:39:49;;;;;;;12.68;10.40;;;6.80;99.90;;;;;;5058075;28;20577;-81
2022/11/03 04:42:19;;;;;;;12.15;10.20;;;6.80;99.90;;;;;;5066234;28;20216;-80
2022/11/03 04:44:47;;;;;;;13.10;10.45;;;6.80;99.90;;;;;;5076148;28;20203;-81
2022/11/03 04:47:17;;;;;;;15.80;12.23;;;6.80;99.90;;;;;;5068399;28;20209;-81
2022/11/03 04:49:44;;;;;;;11.77;10.65;;;6.80;99.90;;;;;;5055790;28;20209;-82
2022/11/03 04:52:15;;;;;;;13.23;11.50;;;6.80;99.90;;;;;;5062239;28;20225;-82
2022/11/03 04:54:42;;;;;;;12.88;9.82;;;6.70;99.90;;;;;;5076915;28;20205;-80
2022/11/03 04:57:13;;;;;;;11.30;10.32;;;6.70;99.90;;;;;;5070332;28;20209;-82
2022/11/03 04:59:40;;;;;;;13.02;10.40;;;6.70;99.90;;;;;;5054922;28;20272;-79
2022/11/03 05:02:14;;;;;;;11.35;8.60;;;6.70;99.90;;;;;;5060074;28;20209;-82
2022/11/03 05:04:41;;;;;;;10.35;8.45;;;6.70;99.90;;;;;;5075290;28;20201;-81
2022/11/03 05:07:22;;;;;;;9.93;9.15;;;6.70;99.90;;;;;;5074976;28;20193;-80
2022/11/03 05:09:49;;;;;;;12.18;8.30;;;6.70;99.90;;;;;;5076271;28;20208;-81
2022/11/03 05:12:17;;;;;;;10.27;8.48;;;6.70;99.90;;;;;;5058319;28;20225;-81
2022/11/03 05:14:44;;;;;;;9.65;8.65;;;6.70;99.90;;;;;;5064152;28;20219;-81
2022/11/03 05:17:21;;;;;;;8.65;7.85;;;6.70;99.90;;;;;;5075922;28;20223;-82
2022/11/03 05:19:50;;;;;;;10.00;8.70;;;6.70;99.90;;;;;;5066229;28;20258;-81
2022/11/03 05:22:20;;;;;;;9.40;8.45;;;6.60;99.90;;;;;;5053806;28;20231;-79
2022/11/03 05:24:47;;;;;;;13.13;9.73;;;6.60;99.90;;;;;;5065823;28;20205;-82
2022/11/03 05:27:19;;;;;;;8.55;7.75;;;6.60;99.90;;;;;;5075695;28;20201;-81
2022/11/03 05:29:47;;;;;;;11.18;10.07;;;6.60;99.90;;;;;;5077417;28;20219;-82
2022/11/03 05:32:19;;;;;;;9.48;8.60;;;6.60;99.90;;;;;;5078982;28;20231;-82
2022/11/03 05:34:47;;;;;;;11.38;8.43;;;6.60;99.90;;;;;;5081405;28;20205;-82
2022/11/03 05:37:27;;;;;;;9.95;8.43;;;6.50;99.90;;;;;;5075065;28;20202;-82
2022/11/03 05:39:56;;;;;;;10.02;9.10;;;6.50;99.90;;;;;;5060828;28;20220;-82
2022/11/03 05:42:31;;;;;;;10.75;9.65;;;6.50;99.90;;;;;;5067334;28;20231;-82
2022/11/03 05:44:59;;;;;;;8.75;7.95;;;6.50;99.90;;;;;;5081062;28;20199;-82
2022/11/03 05:47:33;;;;;;;9.07;8.18;;;6.50;99.90;;;;;;5080699;28;20571;-83
2022/11/03 05:50:06;;;;;;;10.07;9.07;;;6.50;99.90;;;;;;5081608;28;20208;-82
2022/11/03 05:52:33;;;;;;;9.70;8.18;;;6.50;99.90;;;;;;5073496;28;20226;-82
2022/11/03 05:55:02;;;;;;;9.70;8.57;;;6.50;99.90;;;;;;5060672;28;20209;-82
2022/11/03 05:57:30;;;;;;;11.25;10.15;;;6.50;99.90;;;;;;5066536;28;20212;-82
2022/11/03 05:59:58;;;;;;;8.23;7.43;;;6.50;99.90;;;;;;5080423;28;20216;-81
2022/11/03 06:02:36;;;;;;;13.48;7.88;;;6.50;99.90;;;;;;5079961;28;20707;-83
2022/11/03 06:05:03;;;;;;;8.95;7.30;;;6.40;99.90;;;;;;5080360;28;20215;-82
2022/11/03 06:07:31;;;;;;;10.52;8.93;;;6.40;99.90;;;;;;5063353;28;20202;-82
2022/11/03 06:09:58;;;;;;;9.63;7.82;;;6.40;99.90;;;;;;5060098;28;20205;-83
2022/11/03 06:12:26;;;;;;;10.63;8.60;;;6.40;99.90;;;;;;5074727;28;20259;-82
2022/11/03 06:14:53;;;;;;;9.50;6.50;;;6.40;99.90;;;;;;5079875;28;20212;-83
2022/11/03 06:17:22;;;;;;;9.70;8.70;;;6.40;99.90;;;;;;5079433;28;20217;-81
2022/11/03 06:19:53;;;;;;;7.50;6.80;;;6.40;99.90;;;;;;5079693;28;20235;-82
2022/11/03 06:22:23;;;;;;;9.65;7.47;;;6.40;99.90;;;;;;5079334;28;20224;-81
2022/11/03 06:24:51;;;;;;;11.15;8.00;;;6.40;99.90;;;;;;5079437;28;20228;-82
2022/11/03 06:27:21;;;;;;;7.40;6.65;;;6.40;99.90;;;;;;5066445;28;20208;-81
2022/11/03 06:29:50;;;;;;;9.30;8.13;;;6.40;99.90;;;;;;5058437;28;20234;-80
2022/11/03 06:32:17;;;;;;;10.63;8.35;;;6.50;99.90;;;;;;5077989;28;20581;-82
2022/11/03 06:34:49;;;;;;;9.93;7.93;;;6.50;99.90;;;;;;5077208;28;20205;-80
2022/11/03 06:37:23;;;;;;;10.73;9.43;;;6.50;99.90;;;;;;5078219;28;20219;-82
2022/11/03 06:39:51;;;;;;;12.80;10.30;;;6.60;99.90;;;;;;5076099;28;20215;-82
2022/11/03 06:42:21;;;;;;;14.15;8.93;;;6.60;99.90;;;;;;5058922;28;20226;-83
2022/11/03 06:44:49;;;;;;;12.43;11.13;;;6.70;99.90;;;;;;5060439;28;20691;-82
2022/11/03 06:47:24;;;;;;;10.40;9.27;;;6.80;99.90;;;;;;5079311;28;20201;-83
2022/11/03 06:49:52;;;;;;;11.63;9.20;;;6.80;99.90;;;;;;5077392;28;20204;-81
2022/11/03 06:52:37;;;;;;;13.25;10.70;;;6.90;99.90;;;;;;5059367;28;20312;-83
2022/11/03 06:55:24;;;;;;;11.45;9.30;;;7.00;99.90;;;;;;5073869;28;20201;-82
2022/11/03 06:57:55;;;;;;;13.88;9.80;;;7.10;99.90;;;;;;5074499;28;20648;-83
2022/11/03 07:00:23;;;;;;;9.98;8.60;;;7.10;99.90;;;;;;5058732;28;20381;-83
2022/11/03 07:02:56;;;;;;;8.93;8.15;;;7.20;99.90;;;;;;5061646;28;20735;-82
2022/11/03 07:05:25;;;;;;;11.80;8.48;;;7.20;99.90;;;;;;5078978;28;20212;-81
2022/11/03 07:07:57;;;;;;;11.52;9.20;;;7.30;99.90;;;;;;5059194;28;20205;-82
2022/11/03 07:10:25;;;;;;;12.88;9.10;;;7.40;99.90;;;;;;5058777;28;20216;-82
2022/11/03 07:12:53;;;;;;;9.98;8.73;;;7.60;99.90;;;;;;5076477;28;20224;-82
2022/11/03 07:15:24;;;;;;;9.70;8.80;;;7.70;99.90;;;;;;5069258;28;20202;-83
2022/11/03 07:17:52;;;;;;;10.13;8.18;;;7.90;99.90;;;;;;5063204;28;20198;-83
2022/11/03 07:20:19;;;;;;;16.13;9.00;;;8.10;99.90;;;;;;5069919;28;20553;-83
2022/11/03 07:22:46;;;;;;;12.85;8.68;;;8.20;99.90;;;;;;5066881;28;20251;-81
2022/11/03 07:25:18;;;;;;;11.95;9.23;;;8.30;99.90;;;;;;5067255;28;20197;-83
2022/11/03 07:27:48;;;;;;;10.23;8.43;;;8.40;99.90;;;;;;5066888;28;20614;-83
2022/11/03 07:30:19;;;;;;;12.93;8.32;;;8.60;99.90;;;;;;5067064;28;20591;-83
2022/11/03 07:32:47;;;;;;;13.35;10.77;;;8.70;99.90;;;;;;5071670;28;20279;-83
2022/11/03 07:35:27;;;;;;;14.27;12.88;;;8.90;99.90;;;;;;5066092;28;20198;-82
2022/11/03 07:37:56;;;;;;;18.13;16.23;;;9.00;99.90;;;;;;5059368;28;20214;-84
2022/11/03 07:40:25;;;;;;;15.98;14.27;;;9.10;99.90;;;;;;5059968;28;20205;-84
2022/11/03 07:42:56;;;;;;;15.32;11.35;;;9.20;99.90;;;;;;5064881;28;20297;-84
2022/11/03 07:45:37;;;;;;;15.80;11.43;;;9.20;99.90;;;;;;5088169;28;20275;-84
2022/11/03 07:48:33;;;;;;;12.05;10.02;;;9.30;99.90;;;;;;5085026;28;20207;-83
2022/11/03 07:51:32;;;;;;;16.70;10.53;;;9.40;99.90;;;;;;5081209;28;20192;-81
2022/11/03 07:54:16;;;;;;;11.07;10.10;;;9.40;99.90;;;;;;5065647;28;20861;-84
2022/11/03 07:57:24;;;;;;;12.40;8.63;;;9.50;99.90;;;;;;5041325;28;20229;-84
2022/11/03 07:59:59;;;;;;;13.45;12.25;;;9.50;99.90;;;;;;5060561;28;20231;-83
2022/11/03 08:02:56;;;;;;;16.73;9.63;;;9.60;99.90;;;;;;5058515;28;20234;-84
2022/11/03 08:05:27;;;;;;;8.70;7.90;;;9.60;99.90;;;;;;5059285;28;20312;-83
2022/11/03 08:08:04;;;;;;;10.40;6.90;;;9.70;99.90;;;;;;5057141;28;20451;-82
2022/11/03 08:13:19;;;;;;;6.83;5.83;;;9.80;99.90;;;;;;5058768;28;20318;-83
2022/11/03 08:16:02;;;;;;;8.07;7.37;;;9.90;99.90;;;;;;5055847;28;20453;-82
2022/11/03 08:18:41;;;;;;;11.33;7.00;;;10.00;99.90;;;;;;5055417;28;20479;-82
2022/11/03 08:21:16;;;;;;;7.50;5.60;;;10.10;99.90;;;;;;5055781;28;21023;-83
2022/11/03 08:24:05;;;;;;;9.90;6.57;;;10.20;99.90;;;;;;5039704;28;20548;-83
2022/11/03 08:36:10;;;;;;;7.03;6.43;;;10.50;99.90;;;;;;5067362;28;20418;-82
2022/11/03 08:38:42;;;;;;;6.70;6.00;;;10.60;99.90;;;;;;5057124;28;20443;-82
2022/11/03 08:41:09;;;;;;;14.70;5.40;;;10.60;99.90;;;;;;5059910;28;20455;-82
2022/11/03 08:43:42;;;;;;;4.00;3.70;;;10.70;99.90;;;;;;5059612;28;20537;-82
2022/11/03 08:46:18;;;;;;;5.60;5.10;;;10.80;99.90;;;;;;5059797;28;20214;-82
2022/11/03 08:49:00;;;;;;;4.70;3.90;;;10.80;99.90;;;;;;5059821;28;20459;-82
2022/11/03 08:51:42;;;;;;;4.82;4.43;;;10.80;99.90;;;;;;5059926;28;20873;-82
2022/11/03 08:57:02;;;;;;;6.80;4.03;;;11.00;99.90;;;;;;5058986;28;20459;-83
2022/11/03 08:59:59;;;;;;;5.50;4.03;;;11.10;99.90;;;;;;5057716;28;20455;-82
2022/11/03 09:03:16;;;;;;;5.70;2.80;;;11.20;99.90;;;;;;5059638;28;20466;-84
2022/11/03 09:06:48;;;;;;;5.37;4.00;;;11.20;99.90;;;;;;5059564;28;20445;-83
2022/11/03 09:09:22;;;;;;;4.77;4.27;;;11.00;99.90;;;;;;5062341;28;20512;-83
2022/11/03 09:12:33;;;;;;;5.87;4.93;;;11.00;99.90;;;;;;5053188;28;20493;-83
2022/11/03 09:15:21;;;;;;;4.43;3.47;;;11.10;99.90;;;;;;5063040;28;20446;-84
2022/11/03 09:17:55;;;;;;;5.80;4.17;;;11.30;99.90;;;;;;5052883;28;20443;-83
2022/11/03 09:20:34;;;;;;;7.60;4.60;;;11.40;99.90;;;;;;5063477;28;20463;-83
2022/11/03 09:23:13;;;;;;;4.30;3.90;;;11.60;99.90;;;;;;5062402;28;20518;-83
2022/11/03 09:25:44;;;;;;;5.00;4.13;;;11.70;99.90;;;;;;5060537;28;20484;-82
2022/11/03 09:28:19;;;;;;;5.70;3.63;;;11.80;99.90;;;;;;5064877;28;20432;-82
2022/11/03 09:30:51;;;;;;;5.80;3.67;;;11.90;99.90;;;;;;5063505;28;20455;-82
2022/11/03 09:33:18;;;;;;;11.50;5.07;;;12.00;99.90;;;;;;5058490;28;20490;-83
2022/11/03 09:41:20;;;;;;;4.70;3.17;;;12.40;99.90;;;;;;5059553;28;20463;-83
2022/11/03 09:44:09;;;;;;;5.20;3.83;;;12.40;99.90;;;;;;5056407;28;20817;-83
2022/11/03 09:46:45;;;;;;;7.20;3.83;;;12.60;99.90;;;;;;5062991;28;20436;-83
2022/11/03 09:52:06;;;;;;;3.00;2.57;;;12.90;99.90;;;;;;5061127;28;20492;-84
2022/11/03 09:57:37;;;;;;;3.50;3.20;;;13.00;99.90;;;;;;5064806;28;20458;-82
2022/11/03 10:00:09;;;;;;;3.43;3.13;;;13.10;99.90;;;;;;5065250;28;20452;-82
2022/11/03 10:02:45;;;;;;;3.17;2.97;;;13.10;99.90;;;;;;5064823;28;20849;-82
2022/11/03 10:05:22;;;;;;;3.07;2.73;;;13.20;99.90;;;;;;5064266;28;20459;-82
2022/11/03 10:07:53;;;;;;;3.70;2.77;;;13.10;99.90;;;;;;5063398;28;20458;-82
2022/11/03 10:10:25;;;;;;;3.67;2.87;;;13.00;99.90;;;;;;5063947;28;20475;-82
2022/11/03 10:13:07;;;;;;;3.30;3.00;;;13.00;99.90;;;;;;5062351;28;20495;-84
2022/11/03 10:15:41;;;;;;;3.53;3.23;;;12.80;99.90;;;;;;5061359;28;20452;-82
2022/11/03 10:18:09;;;;;;;4.70;3.10;;;12.70;99.90;;;;;;5060235;28;20935;-83
2022/11/03 10:20:40;;;;;;;3.17;2.90;;;12.70;99.90;;;;;;5062007;28;20455;-84
2022/11/03 10:23:09;;;;;;;3.30;2.83;;;12.80;99.90;;;;;;5065280;28;20472;-83
2022/11/03 10:25:39;;;;;;;5.50;3.30;;;12.80;99.90;;;;;;5064683;28;20516;-82
2022/11/03 10:28:18;;;;;;;6.07;3.17;;;12.90;99.90;;;;;;5059692;28;20447;-82
2022/11/03 10:30:56;;;;;;;6.73;3.20;;;13.00;99.90;;;;;;5070582;28;20447;-83
2022/11/03 10:33:30;;;;;;;4.10;3.70;;;13.10;99.90;;;;;;5077694;28;20487;-82
2022/11/03 10:35:59;;;;;;;4.13;3.40;;;13.20;99.90;;;;;;5064283;28;20911;-84
2022/11/03 10:38:29;;;;;;;4.40;3.90;;;13.20;99.90;;;;;;5059584;28;20468;-80
2022/11/03 10:41:11;;;;;;;6.00;3.40;;;13.20;99.90;;;;;;5056754;28;20452;-80
2022/11/03 10:43:38;;;;;;;3.63;3.33;;;13.20;99.90;;;;;;5066706;28;20528;-80
2022/11/03 10:46:15;;;;;;;4.97;3.70;;;13.40;99.90;;;;;;5065001;28;20816;-79
2022/11/03 10:48:42;;;;;;;5.10;3.90;;;13.40;99.90;;;;;;5055685;28;20451;-79
2022/11/03 10:51:13;;;;;;;3.03;2.67;;;13.60;99.90;;;;;;5068561;28;20894;-80
2022/11/03 10:53:42;;;;;;;3.53;3.23;;;13.70;99.90;;;;;;5074918;28;20514;-84
2022/11/03 10:56:11;;;;;;;7.07;3.20;;;13.80;99.90;;;;;;5078115;28;20460;-83
2022/11/03 10:58:38;;;;;;;3.17;2.90;;;13.90;99.90;;;;;;5059295;28;20448;-82
2022/11/03 11:01:06;;;;;;;4.23;3.00;;;13.90;99.90;;;;;;5059943;28;20452;-83
2022/11/03 11:03:34;;;;;;;2.73;2.53;;;14.10;99.90;;;;;;5085311;28;20472;-83
2022/11/03 11:06:09;;;;;;;3.33;3.00;;;14.20;99.90;;;;;;5092099;28;20538;-83
2022/11/03 11:08:37;;;;;;;3.37;3.07;;;14.20;99.90;;;;;;5087898;28;20523;-84
2022/11/03 11:11:06;;;;;;;8.10;3.17;;;14.20;99.90;;;;;;5081117;28;20968;-83
2022/11/03 11:13:35;;;;;;;4.07;2.93;;;14.20;99.90;;;;;;5076578;28;20484;-83
2022/11/03 11:16:02;;;;;;;3.77;2.70;;;14.20;99.90;;;;;;5069118;28;20455;-84
2022/11/03 11:19:09;;;;;;;3.53;3.23;;;14.30;99.90;;;;;;5065447;28;20471;-84
2022/11/03 11:22:13;;;;;;;3.50;3.20;;;14.30;99.90;;;;;;5071005;28;20515;-80
2022/11/03 11:24:59;;;;;;;4.37;3.37;;;14.30;99.90;;;;;;5077099;28;20436;-82
2022/11/03 11:28:06;;;;;;;4.60;2.87;;;14.40;99.90;;;;;;5073992;28;20463;-81
2022/11/03 11:31:27;;;;;;;2.87;2.67;;;14.40;99.90;;;;;;5078182;28;20845;-84
2022/11/03 11:34:32;;;;;;;3.60;2.80;;;14.60;99.90;;;;;;5078809;28;20574;-80
2022/11/03 11:37:33;;;;;;;3.60;3.30;;;14.60;99.90;;;;;;5055539;28;20440;-79
2022/11/03 11:40:02;;;;;;;3.90;2.80;;;14.80;99.90;;;;;;5039905;28;20449;-83
2022/11/03 11:42:29;;;;;;;3.23;2.70;;;14.80;99.90;;;;;;5061210;28;20479;-82
2022/11/03 11:45:01;;;;;;;4.73;3.17;;;14.90;99.90;;;;;;5057048;28;20560;-83
2022/11/03 11:47:46;;;;;;;3.10;2.50;;;14.90;99.90;;;;;;5058007;28;20472;-80
2022/11/03 11:50:31;;;;;;;3.73;2.83;;;14.90;99.90;;;;;;5058864;28;20448;-82
2022/11/03 11:53:17;;;;;;;3.03;2.60;;;14.90;99.90;;;;;;5058828;28;20489;-83
2022/11/03 11:55:49;;;;;;;4.50;3.03;;;14.90;99.90;;;;;;5052474;28;20448;-84
2022/11/03 11:58:21;;;;;;;3.03;2.70;;;15.00;99.90;;;;;;5075515;28;20471;-83
2022/11/03 12:00:57;;;;;;;3.33;2.50;;;15.00;99.90;;;;;;5072508;28;20461;-83
2022/11/03 12:03:29;;;;;;;6.67;3.30;;;15.00;99.90;;;;;;5077946;28;20470;-81
2022/11/03 12:05:56;;;;;;;8.20;3.03;;;15.10;99.90;;;;;;5068409;28;20447;-83
2022/11/03 12:08:29;;;;;;;3.80;3.23;;;15.10;99.90;;;;;;5061565;28;20476;-81
2022/11/03 12:10:58;;;;;;;3.73;3.17;;;15.10;99.90;;;;;;5063266;28;20479;-83
2022/11/03 12:13:43;;;;;;;4.00;2.60;;;15.20;99.90;;;;;;5059259;28;20486;-83
2022/11/03 12:16:10;;;;;;;5.87;3.57;;;15.20;99.90;;;;;;5059109;28;20491;-84
2022/11/03 12:18:40;;;;;;;6.20;3.23;;;15.20;99.90;;;;;;5059624;28;20460;-85
2022/11/03 12:21:09;;;;;;;2.90;2.70;;;15.20;99.90;;;;;;5070706;28;20445;-83
2022/11/03 12:23:41;;;;;;;3.87;3.57;;;15.10;99.90;;;;;;5067117;28;20471;-83
2022/11/03 12:26:15;;;;;;;4.63;3.90;;;15.10;99.90;;;;;;5058485;28;20451;-83
2022/11/03 12:28:43;;;;;;;4.30;3.20;;;15.10;99.90;;;;;;5071072;28;20960;-83
2022/11/03 12:31:11;;;;;;;3.67;3.37;;;15.10;99.90;;;;;;5072048;28;20450;-83
2022/11/03 12:33:39;;;;;;;4.97;4.40;;;15.10;99.90;;;;;;5059818;28;20538;-84
2022/11/03 12:36:06;;;;;;;5.20;4.33;;;15.10;99.90;;;;;;5059732;28;20456;-84
2022/11/03 12:38:33;;;;;;;8.13;4.70;;;15.10;99.90;;;;;;5060623;28;20448;-84
2022/11/03 12:41:19;;;;;;;5.67;5.23;;;15.00;99.90;;;;;;5063509;28;20455;-84
2022/11/03 12:43:47;;;;;;;4.73;4.30;;;15.00;99.90;;;;;;5059566;28;20477;-80
2022/11/03 12:46:15;;;;;;;5.30;4.43;;;15.00;99.90;;;;;;5059127;28;20449;-84
2022/11/03 12:48:43;;;;;;;4.97;4.50;;;15.00;99.90;;;;;;5059348;28;20450;-84
2022/11/03 12:51:12;;;;;;;4.40;4.00;;;15.00;99.90;;;;;;5071133;28;20523;-83
2022/11/03 12:53:39;;;;;;;7.63;4.63;;;15.00;99.90;;;;;;5079250;28;20932;-83
2022/11/03 12:56:07;;;;;;;6.43;4.90;;;15.00;99.90;;;;;;5068187;28;20458;-84
2022/11/03 12:58:33;;;;;;;6.17;4.83;;;15.00;99.90;;;;;;5056514;28;20541;-85
2022/11/03 13:01:01;;;;;;;5.97;5.40;;;15.00;99.90;;;;;;5058284;28;20462;-79
2022/11/03 13:03:30;;;;;;;7.20;5.67;;;14.90;99.90;;;;;;5064720;28;20460;-79
2022/11/03 13:05:58;;;;;;;5.77;4.77;;;14.90;99.90;;;;;;5065270;28;20452;-79
2022/11/03 13:08:25;;;;;;;7.23;5.50;;;14.80;99.90;;;;;;5076690;28;20463;-79
2022/11/03 13:10:52;;;;;;;6.17;5.57;;;14.70;99.90;;;;;;5069385;28;20456;-80
2022/11/03 13:13:19;;;;;;;5.93;5.33;;;14.70;99.90;;;;;;5057378;28;20495;-82
2022/11/03 13:15:46;;;;;;;5.50;5.00;;;14.70;99.90;;;;;;5063041;28;20449;-82
2022/11/03 13:18:13;;;;;;;8.60;4.27;;;14.70;99.90;;;;;;5077068;28;20507;-82
2022/11/03 13:20:40;;;;;;;9.17;5.40;;;14.70;99.90;;;;;;5071600;28;20477;-79
2022/11/03 13:23:08;;;;;;;8.63;6.73;;;14.80;99.90;;;;;;5055681;28;20475;-80
2022/11/03 13:25:35;;;;;;;7.10;5.90;;;14.80;99.90;;;;;;5060291;28;20448;-83
2022/11/03 13:28:02;;;;;;;5.90;5.37;;;14.80;99.90;;;;;;5076252;28;20455;-84
2022/11/03 13:30:30;;;;;;;10.43;6.10;;;14.80;99.90;;;;;;5074347;28;20445;-83
2022/11/03 13:32:57;;;;;;;6.33;5.40;;;14.80;99.90;;;;;;5057542;28;20484;-84
2022/11/03 13:35:24;;;;;;;7.13;6.50;;;14.70;99.90;;;;;;5058263;28;20985;-83
2022/11/03 13:37:51;;;;;;;7.93;6.03;;;14.60;99.90;;;;;;5056518;28;21092;-83
2022/11/03 13:40:19;;;;;;;7.63;7.03;;;14.60;99.90;;;;;;5058581;28;20452;-84
2022/11/03 13:42:46;;;;;;;7.40;6.47;;;14.50;99.90;;;;;;5063414;28;20672;-82
2022/11/03 13:45:13;;;;;;;7.17;6.47;;;14.50;99.90;;;;;;5060393;28;20457;-84
2022/11/03 13:47:40;;;;;;;9.60;8.23;;;14.50;99.90;;;;;;5077445;28;20455;-83
2022/11/03 13:50:07;;;;;;;10.10;8.73;;;14.50;99.90;;;;;;5074751;28;20453;-82
2022/11/03 13:52:34;;;;;;;9.20;7.67;;;14.40;99.90;;;;;;5075238;28;20467;-83
2022/11/03 13:55:01;;;;;;;11.07;8.40;;;14.40;99.90;;;;;;5075508;28;20847;-82
2022/11/03 13:57:29;;;;;;;14.73;9.40;;;14.40;99.90;;;;;;5066526;28;20445;-81
2022/11/03 13:59:56;;;;;;;8.40;7.60;;;14.40;99.90;;;;;;5061486;28;20452;-83
2022/11/03 14:02:22;;;;;;;9.93;8.93;;;14.30;99.90;;;;;;5080272;28;20478;-83
2022/11/03 14:04:49;;;;;;;8.03;7.23;;;14.30;99.90;;;;;;5079696;28;20447;-83
2022/11/03 14:07:16;;;;;;;7.17;6.57;;;14.20;99.90;;;;;;5060030;28;20456;-82
2022/11/03 14:09:42;;;;;;;9.60;7.50;;;14.20;99.90;;;;;;5056777;28;20943;-81
2022/11/03 14:14:55;;;;;;;9.03;8.17;;;14.10;99.90;;;;;;5076835;28;20557;-82
2022/11/03 14:17:23;;;;;;;7.13;6.57;;;14.10;99.90;;;;;;5058116;28;21006;-82
2022/11/03 14:19:50;;;;;;;10.53;8.30;;;14.10;99.90;;;;;;5060843;28;20459;-81
2022/11/03 14:22:17;;;;;;;7.93;7.23;;;14.10;99.90;;;;;;5077632;28;20472;-82
2022/11/03 14:24:44;;;;;;;10.13;8.10;;;14.10;99.90;;;;;;5077697;28;20861;-83
2022/11/03 14:27:11;;;;;;;7.50;6.40;;;14.00;99.90;;;;;;5076000;28;20950;-80
2022/11/03 14:29:38;;;;;;;8.57;6.43;;;14.00;99.90;;;;;;5078472;28;20459;-80
2022/11/03 14:32:07;;;;;;;8.30;6.70;;;14.00;99.90;;;;;;5061677;28;20472;-82
2022/11/03 14:34:33;;;;;;;7.40;6.70;;;13.90;99.90;;;;;;5058127;28;20488;-82
2022/11/03 14:37:00;;;;;;;6.50;5.87;;;13.90;99.90;;;;;;5059592;28;20448;-82
2022/11/03 14:39:27;;;;;;;6.63;6.03;;;13.90;99.90;;;;;;5059830;28;20456;-82
2022/11/03 14:42:05;;;;;;;8.10;7.37;;;13.80;99.90;;;;;;5059679;28;21039;-82
2022/11/03 14:44:32;;;;;;;10.13;9.20;;;13.80;99.90;;;;;;5059812;28;20439;-83
2022/11/03 14:47:00;;;;;;;9.27;8.47;;;13.80;99.90;;;;;;5075233;28;20439;-82
2022/11/03 14:49:29;;;;;;;9.93;8.97;;;13.80;99.90;;;;;;5078744;28;20456;-79
2022/11/03 14:51:56;;;;;;;9.73;8.73;;;13.70;99.90;;;;;;5087742;28;20439;-81
2022/11/03 14:54:23;;;;;;;7.80;7.20;;;13.80;99.90;;;;;;5078867;28;20482;-79
2022/11/03 14:56:50;;;;;;;8.80;8.10;;;13.80;99.90;;;;;;5064150;28;20451;-80
2022/11/03 14:59:17;;;;;;;8.47;7.17;;;13.80;99.90;;;;;;5076850;28;20457;-81
2022/11/03 15:01:44;;;;;;;7.97;6.97;;;13.80;99.90;;;;;;5063358;28;20452;-83
2022/11/03 15:04:12;;;;;;;12.80;8.60;;;13.80;99.90;;;;;;5056447;28;20985;-82
2022/11/03 15:06:40;;;;;;;9.80;8.53;;;13.70;99.90;;;;;;5070298;28;20459;-82
2022/11/03 15:09:08;;;;;;;10.53;9.40;;;13.60;99.90;;;;;;5077634;28;20455;-82
2022/11/03 15:11:36;;;;;;;11.80;7.93;;;13.60;99.90;;;;;;5077449;28;20614;-81
2022/11/03 15:14:02;;;;;;;8.27;6.50;;;13.50;99.90;;;;;;5077266;28;20518;-82
2022/11/03 15:16:29;;;;;;;8.30;7.10;;;13.50;99.90;;;;;;5077627;28;20462;-81
2022/11/03 15:18:58;;;;;;;11.87;7.37;;;13.50;99.90;;;;;;5059003;28;20463;-82
2022/11/03 15:21:24;;;;;;;7.63;6.83;;;13.40;99.90;;;;;;5067867;28;20463;-82
2022/11/03 15:23:52;;;;;;;11.80;7.77;;;13.40;99.90;;;;;;5067136;28;20467;-80
2022/11/03 15:26:19;;;;;;;7.77;7.07;;;13.20;99.90;;;;;;5071880;28;20446;-83
2022/11/03 15:28:48;;;;;;;8.60;7.27;;;13.00;99.90;;;;;;5063580;28;21192;-82
2022/11/03 15:31:15;;;;;;;8.10;7.40;;;13.00;99.90;;;;;;5062610;28;21068;-84
2022/11/03 15:33:51;;;;;;;8.50;7.67;;;12.90;99.90;;;;;;5070211;28;20575;-84
2022/11/03 15:36:19;;;;;;;8.00;7.17;;;12.90;99.90;;;;;;5070194;28;20473;-83
2022/11/03 15:38:48;;;;;;;7.57;6.70;;;12.90;99.90;;;;;;5072929;28;20482;-82
2022/11/03 15:41:18;;;;;;;10.33;8.83;;;12.90;99.90;;;;;;5055475;28;20530;-83
2022/11/03 15:43:49;;;;;;;7.70;7.00;;;12.90;99.90;;;;;;5055190;28;20559;-83
2022/11/03 15:53:12;;;;;;;6.97;6.27;;;12.90;99.90;;;;;;4942730;28;20467;-83
2022/11/03 15:55:39;;;;;;;8.03;7.23;;;12.90;99.90;;;;;;5054884;28;20468;-83
2022/11/03 16:01:04;;;;;;;11.53;7.83;;;12.80;99.90;;;;;;5055334;28;20452;-83
2022/11/03 16:03:37;;;;;;;6.90;6.30;;;12.70;99.90;;;;;;5055599;28;20578;-83
2022/11/03 16:09:09;;;;;;;15.80;8.87;;;12.70;99.90;;;;;;5069090;28;20840;-83
2022/11/03 16:11:47;;;;;;;11.33;8.00;;;12.70;99.90;;;;;;5076001;28;20482;-83
2022/11/03 16:14:36;;;;;;;9.93;8.97;;;12.60;99.90;;;;;;5076948;28;20482;-82
2022/11/03 16:17:12;;;;;;;10.73;9.60;;;12.40;99.90;;;;;;5058251;28;20458;-82
2022/11/03 16:19:39;;;;;;;8.13;7.20;;;12.50;99.90;;;;;;5055039;28;20456;-83
2022/11/03 16:22:14;;;;;;;10.43;9.33;;;12.40;99.90;;;;;;5057205;28;20464;-83
2022/11/03 16:24:43;;;;;;;7.43;6.73;;;12.40;99.90;;;;;;5067344;28;20530;-83
2022/11/03 16:27:11;;;;;;;9.43;8.40;;;12.30;99.90;;;;;;5073139;28;20447;-81
2022/11/03 16:29:39;;;;;;;8.77;8.00;;;12.30;99.90;;;;;;5068113;28;20448;-82
2022/11/03 16:32:06;;;;;;;10.60;8.20;;;12.30;99.90;;;;;;5056142;28;20460;-82
2022/11/03 16:34:33;;;;;;;10.00;8.40;;;12.30;99.90;;;;;;5068876;28;20471;-83
2022/11/03 16:36:59;;;;;;;12.63;9.90;;;12.30;99.90;;;;;;5073550;28;20451;-79
2022/11/03 16:39:28;;;;;;;11.00;8.27;;;12.30;99.90;;;;;;5061288;28;20454;-84
2022/11/03 16:45:00;;;;;;;10.63;9.57;;;12.30;99.90;;;;;;5055588;28;20534;-80
2022/11/03 16:47:26;;;;;;;9.37;8.30;;;12.20;99.90;;;;;;5066410;28;20452;-80
2022/11/03 16:49:53;;;;;;;9.40;8.70;;;12.20;99.90;;;;;;5063236;28;20455;-82
2022/11/03 16:52:20;;;;;;;8.87;7.60;;;12.30;99.90;;;;;;5056265;28;20497;-83
2022/11/03 16:54:48;;;;;;;10.20;9.20;;;12.30;99.90;;;;;;5066879;28;20492;-82
2022/11/03 16:57:16;;;;;;;10.60;8.20;;;12.30;99.90;;;;;;5058846;28;20981;-83
2022/11/03 16:59:43;;;;;;;10.33;8.40;;;12.30;99.90;;;;;;5064708;28;20451;-82
2022/11/03 17:02:12;;;;;;;9.37;8.07;;;12.20;99.90;;;;;;5052411;28;20478;-83
2022/11/03 17:04:38;;;;;;;8.90;8.00;;;12.20;99.90;;;;;;5054492;28;20447;-82
2022/11/03 17:07:05;;;;;;;9.90;9.10;;;12.20;99.90;;;;;;5059430;28;20448;-81
2022/11/03 17:09:32;;;;;;;13.10;8.77;;;12.20;99.90;;;;;;5067076;28;20460;-81
2022/11/03 17:11:59;;;;;;;9.53;7.77;;;12.20;99.90;;;;;;5074099;28;20562;-81
2022/11/03 17:14:26;;;;;;;9.07;8.20;;;12.10;99.90;;;;;;5061051;28;20492;-81
2022/11/03 17:16:53;;;;;;;8.33;7.50;;;12.10;99.90;;;;;;5063675;28;20471;-81
2022/11/03 17:19:21;;;;;;;9.83;8.63;;;12.20;99.90;;;;;;5066849;28;20459;-81
2022/11/03 17:21:47;;;;;;;7.17;6.50;;;12.10;99.90;;;;;;5055891;28;20455;-80
2022/11/03 17:24:14;;;;;;;7.13;6.53;;;12.20;99.90;;;;;;5056715;28;20972;-81
2022/11/03 17:26:50;;;;;;;6.67;6.00;;;12.30;99.90;;;;;;5074386;28;20980;-84
2022/11/03 17:29:20;;;;;;;8.07;6.03;;;12.20;99.90;;;;;;5068486;28;20831;-81
2022/11/03 17:31:47;;;;;;;6.67;5.30;;;12.30;99.90;;;;;;5064811;28;20823;-82
2022/11/03 17:34:14;;;;;;;6.60;6.00;;;12.40;99.90;;;;;;5061957;28;20484;-83
2022/11/03 17:36:43;;;;;;;6.27;5.77;;;12.50;99.90;;;;;;5067297;28;20455;-82
2022/11/03 17:39:13;;;;;;;6.97;6.37;;;12.50;99.90;;;;;;5064565;28;20447;-83
2022/11/03 17:41:40;;;;;;;7.03;6.27;;;12.50;99.90;;;;;;5073023;28;20481;-83
2022/11/03 17:44:12;;;;;;;7.37;6.77;;;12.60;99.90;;;;;;5079653;28;20451;-84
2022/11/03 17:46:39;;;;;;;6.07;5.30;;;12.60;99.90;;;;;;5079027;28;20979;-85
2022/11/03 17:49:06;;;;;;;6.70;6.20;;;12.50;99.90;;;;;;5065263;28;20452;-85
2022/11/03 17:51:34;;;;;;;5.33;4.70;;;12.60;99.90;;;;;;5060225;28;20447;-85
2022/11/03 17:54:06;;;;;;;5.80;5.30;;;12.70;99.90;;;;;;5072472;28;20535;-86
2022/11/03 17:56:34;;;;;;;6.87;6.33;;;12.70;99.90;;;;;;5060141;28;20520;-86
2022/11/03 17:59:00;;;;;;;6.20;5.73;;;12.80;99.90;;;;;;5069199;28;20461;-84
2022/11/03 18:01:28;;;;;;;7.53;6.27;;;12.90;99.90;;;;;;5064972;28;20452;-85
2022/11/03 18:03:56;;;;;;;9.03;5.90;;;12.90;99.90;;;;;;5061809;28;20452;-85
2022/11/03 18:06:34;;;;;;;6.43;5.83;;;12.90;99.90;;;;;;5060922;28;20486;-86
2022/11/03 18:16:07;;;;;;;5.20;4.70;;;12.90;99.90;;;;;;4994851;28;20486;-84
2022/11/03 18:18:47;;;;;;;6.03;5.30;;;12.90;99.90;;;;;;5050706;28;20456;-84
2022/11/03 18:21:23;;;;;;;6.50;5.60;;;12.90;99.90;;;;;;5043472;28;20455;-85
2022/11/03 18:23:50;;;;;;;6.20;5.50;;;12.90;99.90;;;;;;5074462;28;20471;-83